sensor_id;sensor_type;location;lat;lon;timestamp;noise_LAeq;noise_LA_min;noise_LA_max;noise_LA01;noise_LA95
73663;Laerm;61956;52.540;13.382;2023-04-29T00:00:17;64.57;59.70;67.41;;
73663;Laerm;61956;52.540;13.382;2023-04-29T00:02:47;64.70;58.65;67.71;;
73663;Laerm;61956;52.540;13.382;2023-04-29T00:05:16;64.62;59.60;67.18;;
73663;Laerm;61956;52.540;13.382;2023-04-29T00:07:45;64.67;58.88;67.84;;
73663;Laerm;61956;52.540;13.382;2023-04-29T00:10:14;64.68;58.31;67.28;;
73663;Laerm;61956;52.540;13.382;2023-04-29T00:12:46;64.64;58.22;67.58;;
73663;Laerm;61956;52.540;13.382;2023-04-29T00:15:17;64.66;59.06;67.58;;
73663;Laerm;61956;52.540;13.382;2023-04-29T00:17:46;64.65;59.51;67.56;;
73663;Laerm;61956;52.540;13.382;2023-04-29T00:20:16;64.74;59.39;67.63;;
73663;Laerm;61956;52.540;13.382;2023-04-29T00:22:45;64.67;59.61;67.81;;
73663;Laerm;61956;52.540;13.382;2023-04-29T00:25:14;64.78;59.32;67.68;;
73663;Laerm;61956;52.540;13.382;2023-04-29T00:27:46;64.57;59.49;67.28;;
73663;Laerm;61956;52.540;13.382;2023-04-29T00:30:16;64.52;59.27;67.55;;
73663;Laerm;61956;52.540;13.382;2023-04-29T00:32:45;64.60;58.96;67.20;;
73663;Laerm;61956;52.540;13.382;2023-04-29T00:35:15;64.58;58.78;67.33;;
73663;Laerm;61956;52.540;13.382;2023-04-29T00:37:44;64.59;59.65;67.63;;
73663;Laerm;61956;52.540;13.382;2023-04-29T00:40:13;64.67;58.73;67.71;;
73663;Laerm;61956;52.540;13.382;2023-04-29T00:42:46;64.70;59.25;67.48;;
73663;Laerm;61956;52.540;13.382;2023-04-29T00:45:15;64.54;58.99;67.50;;
73663;Laerm;61956;52.540;13.382;2023-04-29T00:47:45;64.69;59.94;67.64;;
73663;Laerm;61956;52.540;13.382;2023-04-29T00:50:14;64.56;58.65;67.44;;
73663;Laerm;61956;52.540;13.382;2023-04-29T00:52:44;64.74;59.77;67.43;;
73663;Laerm;61956;52.540;13.382;2023-04-29T00:55:13;64.78;59.27;67.57;;
73663;Laerm;61956;52.540;13.382;2023-04-29T00:57:47;64.60;59.40;67.75;;
73663;Laerm;61956;52.540;13.382;2023-04-29T01:00:18;64.73;59.93;67.91;;
73663;Laerm;61956;52.540;13.382;2023-04-29T01:02:49;64.77;59.31;67.65;;
73663;Laerm;61956;52.540;13.382;2023-04-29T01:05:19;64.66;58.36;67.29;;
73663;Laerm;61956;52.540;13.382;2023-04-29T01:08:01;64.76;58.69;67.45;;
73663;Laerm;61956;52.540;13.382;2023-04-29T01:10:40;64.73;59.73;67.42;;
73663;Laerm;61956;52.540;13.382;2023-04-29T01:13:20;64.82;59.67;67.80;;
73663;Laerm;61956;52.540;13.382;2023-04-29T01:16:00;64.85;60.38;67.47;;
73663;Laerm;61956;52.540;13.382;2023-04-29T01:18:36;64.85;59.12;67.53;;
73663;Laerm;61956;52.540;13.382;2023-04-29T01:21:09;64.92;60.62;67.59;;
73663;Laerm;61956;52.540;13.382;2023-04-29T01:23:41;65.05;60.81;67.58;;
73663;Laerm;61956;52.540;13.382;2023-04-29T01:26:12;64.87;59.57;67.82;;
73663;Laerm;61956;52.540;13.382;2023-04-29T01:29:21;64.79;59.43;68.66;;
73663;Laerm;61956;52.540;13.382;2023-04-29T01:32:03;64.88;60.22;68.08;;
73663;Laerm;61956;52.540;13.382;2023-04-29T01:34:46;64.77;60.13;67.65;;
73663;Laerm;61956;52.540;13.382;2023-04-29T01:37:25;64.73;59.58;67.45;;
73663;Laerm;61956;52.540;13.382;2023-04-29T01:40:08;64.65;59.67;71.57;;
73663;Laerm;61956;52.540;13.382;2023-04-29T01:42:54;64.71;59.27;67.58;;
73663;Laerm;61956;52.540;13.382;2023-04-29T01:45:28;64.81;60.27;67.70;;
73663;Laerm;61956;52.540;13.382;2023-04-29T01:47:59;64.84;58.62;67.48;;
73663;Laerm;61956;52.540;13.382;2023-04-29T01:50:30;64.80;58.94;67.43;;
73663;Laerm;61956;52.540;13.382;2023-04-29T01:53:13;64.78;58.81;67.37;;
73663;Laerm;61956;52.540;13.382;2023-04-29T01:55:47;64.85;58.84;67.46;;
73663;Laerm;61956;52.540;13.382;2023-04-29T01:58:21;64.80;60.61;67.48;;
73663;Laerm;61956;52.540;13.382;2023-04-29T02:01:03;64.93;60.15;67.83;;
73663;Laerm;61956;52.540;13.382;2023-04-29T02:03:34;64.89;59.56;67.53;;
73663;Laerm;61956;52.540;13.382;2023-04-29T02:06:07;64.94;59.70;68.07;;
73663;Laerm;61956;52.540;13.382;2023-04-29T02:08:36;64.84;60.59;67.60;;
73663;Laerm;61956;52.540;13.382;2023-04-29T02:11:08;64.87;60.10;67.42;;
73663;Laerm;61956;52.540;13.382;2023-04-29T02:13:39;64.82;60.56;67.81;;
73663;Laerm;61956;52.540;13.382;2023-04-29T02:16:12;64.91;61.00;67.58;;
73663;Laerm;61956;52.540;13.382;2023-04-29T02:18:54;64.93;60.65;68.05;;
73663;Laerm;61956;52.540;13.382;2023-04-29T02:21:23;64.94;60.52;67.55;;
73663;Laerm;61956;52.540;13.382;2023-04-29T02:23:53;64.95;60.13;67.83;;
73663;Laerm;61956;52.540;13.382;2023-04-29T02:26:26;64.85;60.51;67.62;;
73663;Laerm;61956;52.540;13.382;2023-04-29T02:28:55;64.90;60.45;67.38;;
73663;Laerm;61956;52.540;13.382;2023-04-29T02:31:25;64.86;61.02;69.70;;
73663;Laerm;61956;52.540;13.382;2023-04-29T02:33:54;64.87;60.31;67.96;;
73663;Laerm;61956;52.540;13.382;2023-04-29T02:36:23;64.83;60.61;67.56;;
73663;Laerm;61956;52.540;13.382;2023-04-29T02:38:53;64.88;60.77;67.54;;
73663;Laerm;61956;52.540;13.382;2023-04-29T02:41:25;64.83;60.82;67.66;;
73663;Laerm;61956;52.540;13.382;2023-04-29T02:43:55;64.95;60.30;67.87;;
73663;Laerm;61956;52.540;13.382;2023-04-29T02:46:25;64.91;60.76;67.79;;
73663;Laerm;61956;52.540;13.382;2023-04-29T02:48:55;64.85;60.78;67.63;;
73663;Laerm;61956;52.540;13.382;2023-04-29T02:51:24;64.81;60.97;67.27;;
73663;Laerm;61956;52.540;13.382;2023-04-29T02:53:53;64.77;60.21;67.54;;
73663;Laerm;61956;52.540;13.382;2023-04-29T02:58:54;59.99;57.40;62.93;;
73663;Laerm;61956;52.540;13.382;2023-04-29T03:01:23;60.00;57.33;63.19;;
73663;Laerm;61956;52.540;13.382;2023-04-29T03:03:52;60.00;57.48;63.57;;
73663;Laerm;61956;52.540;13.382;2023-04-29T03:06:22;59.99;57.34;63.51;;
73663;Laerm;61956;52.540;13.382;2023-04-29T03:08:52;60.01;57.36;63.11;;
73663;Laerm;61956;52.540;13.382;2023-04-29T03:11:25;59.97;57.27;63.80;;
73663;Laerm;61956;52.540;13.382;2023-04-29T03:13:54;59.97;57.26;62.93;;
73663;Laerm;61956;52.540;13.382;2023-04-29T03:16:24;59.96;57.23;63.42;;
73663;Laerm;61956;52.540;13.382;2023-04-29T03:18:54;59.93;57.32;62.84;;
73663;Laerm;61956;52.540;13.382;2023-04-29T03:21:23;59.92;57.31;62.61;;
73663;Laerm;61956;52.540;13.382;2023-04-29T03:23:53;59.93;57.24;63.41;;
73663;Laerm;61956;52.540;13.382;2023-04-29T03:26:31;59.95;57.42;63.35;;
73663;Laerm;61956;52.540;13.382;2023-04-29T03:29:02;59.93;57.44;62.82;;
73663;Laerm;61956;52.540;13.382;2023-04-29T03:31:33;59.90;57.41;63.00;;
73663;Laerm;61956;52.540;13.382;2023-04-29T03:34:02;59.93;57.29;63.20;;
73663;Laerm;61956;52.540;13.382;2023-04-29T03:36:34;59.94;57.18;62.91;;
73663;Laerm;61956;52.540;13.382;2023-04-29T03:39:07;59.96;57.17;63.12;;
73663;Laerm;61956;52.540;13.382;2023-04-29T03:41:39;59.92;57.17;63.31;;
73663;Laerm;61956;52.540;13.382;2023-04-29T03:44:09;59.90;57.34;62.95;;
73663;Laerm;61956;52.540;13.382;2023-04-29T03:46:39;59.91;57.34;63.02;;
73663;Laerm;61956;52.540;13.382;2023-04-29T03:49:08;59.92;57.30;62.78;;
73663;Laerm;61956;52.540;13.382;2023-04-29T03:51:37;59.89;57.43;63.29;;
73663;Laerm;61956;52.540;13.382;2023-04-29T03:54:13;59.89;57.36;63.26;;
73663;Laerm;61956;52.540;13.382;2023-04-29T03:56:45;59.91;57.34;62.76;;
73663;Laerm;61956;52.540;13.382;2023-04-29T03:59:14;59.88;57.39;62.64;;
73663;Laerm;61956;52.540;13.382;2023-04-29T04:01:44;59.90;57.25;62.98;;
73663;Laerm;61956;52.540;13.382;2023-04-29T04:04:13;59.90;57.45;63.62;;
73663;Laerm;61956;52.540;13.382;2023-04-29T04:06:45;59.87;57.28;62.94;;
73663;Laerm;61956;52.540;13.382;2023-04-29T04:09:17;59.91;57.42;63.21;;
73663;Laerm;61956;52.540;13.382;2023-04-29T04:11:49;59.89;57.37;62.57;;
73663;Laerm;61956;52.540;13.382;2023-04-29T04:14:19;59.88;57.36;63.24;;
73663;Laerm;61956;52.540;13.382;2023-04-29T04:16:49;59.89;57.17;63.05;;
73663;Laerm;61956;52.540;13.382;2023-04-29T04:19:20;59.88;56.96;62.79;;
73663;Laerm;61956;52.540;13.382;2023-04-29T04:21:52;59.87;57.17;63.08;;
73663;Laerm;61956;52.540;13.382;2023-04-29T04:24:21;60.32;57.17;73.87;;
73663;Laerm;61956;52.540;13.382;2023-04-29T04:26:53;59.89;57.34;63.60;;
73663;Laerm;61956;52.540;13.382;2023-04-29T04:29:31;59.89;57.45;62.90;;
73663;Laerm;61956;52.540;13.382;2023-04-29T04:32:13;59.87;57.20;63.20;;
73663;Laerm;61956;52.540;13.382;2023-04-29T04:34:43;59.88;57.38;63.01;;
73663;Laerm;61956;52.540;13.382;2023-04-29T04:37:12;59.93;57.25;62.73;;
73663;Laerm;61956;52.540;13.382;2023-04-29T04:39:46;59.90;57.43;63.26;;
73663;Laerm;61956;52.540;13.382;2023-04-29T04:42:18;59.87;57.29;63.26;;
73663;Laerm;61956;52.540;13.382;2023-04-29T04:44:49;59.90;57.45;64.71;;
73663;Laerm;61956;52.540;13.382;2023-04-29T04:47:29;59.89;57.09;63.15;;
73663;Laerm;61956;52.540;13.382;2023-04-29T04:50:08;59.87;57.27;62.94;;
73663;Laerm;61956;52.540;13.382;2023-04-29T04:52:37;59.89;57.32;62.92;;
73663;Laerm;61956;52.540;13.382;2023-04-29T04:55:26;59.87;57.42;62.63;;
73663;Laerm;61956;52.540;13.382;2023-04-29T04:57:59;59.90;57.01;63.37;;
73663;Laerm;61956;52.540;13.382;2023-04-29T05:00:28;59.87;57.33;63.15;;
73663;Laerm;61956;52.540;13.382;2023-04-29T05:02:57;59.87;57.23;62.75;;
73663;Laerm;61956;52.540;13.382;2023-04-29T05:05:27;59.86;57.14;62.72;;
73663;Laerm;61956;52.540;13.382;2023-04-29T05:07:56;59.86;57.06;62.86;;
73663;Laerm;61956;52.540;13.382;2023-04-29T05:10:35;59.88;57.11;62.92;;
73663;Laerm;61956;52.540;13.382;2023-04-29T05:13:08;59.93;57.11;63.29;;
73663;Laerm;61956;52.540;13.382;2023-04-29T05:15:37;59.92;57.31;63.52;;
73663;Laerm;61956;52.540;13.382;2023-04-29T05:18:08;59.88;57.30;63.60;;
73663;Laerm;61956;52.540;13.382;2023-04-29T05:20:39;59.91;57.37;65.86;;
73663;Laerm;61956;52.540;13.382;2023-04-29T05:23:09;59.91;57.26;62.82;;
73663;Laerm;61956;52.540;13.382;2023-04-29T05:25:39;59.91;57.41;63.83;;
73663;Laerm;61956;52.540;13.382;2023-04-29T05:28:11;59.90;57.43;63.19;;
73663;Laerm;61956;52.540;13.382;2023-04-29T05:30:41;59.88;57.30;62.85;;
73663;Laerm;61956;52.540;13.382;2023-04-29T05:33:10;59.93;57.34;69.59;;
73663;Laerm;61956;52.540;13.382;2023-04-29T05:35:39;59.88;57.25;62.81;;
73663;Laerm;61956;52.540;13.382;2023-04-29T05:38:09;59.92;57.17;63.49;;
73663;Laerm;61956;52.540;13.382;2023-04-29T05:40:40;60.02;57.42;63.43;;
73663;Laerm;61956;52.540;13.382;2023-04-29T05:43:34;60.42;57.36;65.34;;
73663;Laerm;61956;52.540;13.382;2023-04-29T05:46:04;60.54;57.74;69.48;;
73663;Laerm;61956;52.540;13.382;2023-04-29T05:48:33;60.02;57.58;68.46;;
73663;Laerm;61956;52.540;13.382;2023-04-29T05:51:03;60.02;57.14;68.76;;
73663;Laerm;61956;52.540;13.382;2023-04-29T05:53:32;60.02;57.42;64.61;;
73663;Laerm;61956;52.540;13.382;2023-04-29T05:56:03;59.99;57.52;65.93;;
73663;Laerm;61956;52.540;13.382;2023-04-29T05:58:39;59.99;57.55;65.47;;
73663;Laerm;61956;52.540;13.382;2023-04-29T06:01:08;59.95;57.06;63.00;;
73663;Laerm;61956;52.540;13.382;2023-04-29T06:03:38;59.84;57.27;63.11;;
73663;Laerm;61956;52.540;13.382;2023-04-29T06:06:26;55.88;52.97;62.19;;
73663;Laerm;61956;52.540;13.382;2023-04-29T06:09:01;54.70;52.49;62.89;;
73663;Laerm;61956;52.540;13.382;2023-04-29T06:11:32;54.69;52.59;68.45;;
73663;Laerm;61956;52.540;13.382;2023-04-29T06:14:04;54.82;52.65;59.51;;
73663;Laerm;61956;52.540;13.382;2023-04-29T06:16:33;54.78;52.52;59.49;;
73663;Laerm;61956;52.540;13.382;2023-04-29T06:19:02;55.19;53.14;59.57;;
73663;Laerm;61956;52.540;13.382;2023-04-29T06:21:31;55.32;53.17;59.67;;
73663;Laerm;61956;52.540;13.382;2023-04-29T06:24:01;57.58;53.29;63.20;;
73663;Laerm;61956;52.540;13.382;2023-04-29T06:26:30;58.03;54.84;62.05;;
73663;Laerm;61956;52.540;13.382;2023-04-29T06:28:59;57.70;54.63;62.61;;
73663;Laerm;61956;52.540;13.382;2023-04-29T06:31:31;59.71;57.37;62.14;;
73663;Laerm;61956;52.540;13.382;2023-04-29T06:34:03;57.52;54.29;65.98;;
73663;Laerm;61956;52.540;13.382;2023-04-29T06:36:36;57.14;54.41;67.28;;
73663;Laerm;61956;52.540;13.382;2023-04-29T06:39:37;56.06;53.64;68.30;;
73663;Laerm;61956;52.540;13.382;2023-04-29T06:42:26;56.67;53.67;70.01;;
73663;Laerm;61956;52.540;13.382;2023-04-29T06:45:15;55.87;53.66;68.90;;
73663;Laerm;61956;52.540;13.382;2023-04-29T06:48:07;58.12;53.83;63.37;;
73663;Laerm;61956;52.540;13.382;2023-04-29T06:50:53;59.41;54.26;65.78;;
73663;Laerm;61956;52.540;13.382;2023-04-29T06:53:23;56.38;53.83;65.82;;
73663;Laerm;61956;52.540;13.382;2023-04-29T06:55:52;55.84;53.95;60.16;;
73663;Laerm;61956;52.540;13.382;2023-04-29T06:58:21;55.90;53.90;60.52;;
73663;Laerm;61956;52.540;13.382;2023-04-29T07:00:50;58.51;54.49;65.01;;
73663;Laerm;61956;52.540;13.382;2023-04-29T07:03:24;57.76;53.48;71.03;;
73663;Laerm;61956;52.540;13.382;2023-04-29T07:05:53;59.62;56.64;62.87;;
73663;Laerm;61956;52.540;13.382;2023-04-29T07:08:23;59.61;57.58;61.75;;
73663;Laerm;61956;52.540;13.382;2023-04-29T07:10:54;59.67;57.45;63.44;;
73663;Laerm;61956;52.540;13.382;2023-04-29T07:13:24;59.27;54.54;69.06;;
73663;Laerm;61956;52.540;13.382;2023-04-29T07:15:53;59.48;55.10;67.03;;
73663;Laerm;61956;52.540;13.382;2023-04-29T07:18:25;58.94;54.41;65.94;;
73663;Laerm;61956;52.540;13.382;2023-04-29T07:21:03;58.28;53.69;67.57;;
73663;Laerm;61956;52.540;13.382;2023-04-29T07:23:33;59.30;55.19;67.05;;
73663;Laerm;61956;52.540;13.382;2023-04-29T07:26:09;59.75;57.36;62.99;;
73663;Laerm;61956;52.540;13.382;2023-04-29T07:28:39;59.83;57.70;62.72;;
73663;Laerm;61956;52.540;13.382;2023-04-29T07:31:09;59.88;57.61;62.98;;
73663;Laerm;61956;52.540;13.382;2023-04-29T07:33:43;59.54;54.37;64.79;;
73663;Laerm;61956;52.540;13.382;2023-04-29T07:36:13;59.29;53.98;64.71;;
73663;Laerm;61956;52.540;13.382;2023-04-29T07:38:42;59.73;54.60;64.63;;
73663;Laerm;61956;52.540;13.382;2023-04-29T07:41:11;59.86;57.39;62.51;;
73663;Laerm;61956;52.540;13.382;2023-04-29T07:43:41;59.89;57.56;63.16;;
73663;Laerm;61956;52.540;13.382;2023-04-29T07:46:10;59.89;57.51;62.63;;
73663;Laerm;61956;52.540;13.382;2023-04-29T07:48:42;59.92;57.47;62.92;;
73663;Laerm;61956;52.540;13.382;2023-04-29T07:51:12;59.80;57.14;64.57;;
73663;Laerm;61956;52.540;13.382;2023-04-29T07:53:42;59.26;57.02;63.53;;
73663;Laerm;61956;52.540;13.382;2023-04-29T07:56:11;59.78;57.60;63.21;;
73663;Laerm;61956;52.540;13.382;2023-04-29T07:58:41;59.52;57.38;62.91;;
73663;Laerm;61956;52.540;13.382;2023-04-29T08:01:10;59.35;57.29;62.70;;
73663;Laerm;61956;52.540;13.382;2023-04-29T08:03:43;59.14;55.33;66.71;;
73663;Laerm;61956;52.540;13.382;2023-04-29T08:06:15;57.18;54.75;63.77;;
73663;Laerm;61956;52.540;13.382;2023-04-29T08:08:47;57.55;54.85;64.76;;
73663;Laerm;61956;52.540;13.382;2023-04-29T08:11:19;59.45;55.41;64.51;;
73663;Laerm;61956;52.540;13.382;2023-04-29T08:13:51;58.00;55.03;62.92;;
73663;Laerm;61956;52.540;13.382;2023-04-29T08:16:22;57.31;54.76;61.99;;
73663;Laerm;61956;52.540;13.382;2023-04-29T08:18:55;57.18;55.05;68.10;;
73663;Laerm;61956;52.540;13.382;2023-04-29T08:21:24;58.12;55.57;64.89;;
73663;Laerm;61956;52.540;13.382;2023-04-29T08:23:53;58.69;56.28;64.23;;
73663;Laerm;61956;52.540;13.382;2023-04-29T08:26:23;59.44;56.49;62.49;;
73663;Laerm;61956;52.540;13.382;2023-04-29T08:28:52;58.11;56.22;63.69;;
73663;Laerm;61956;52.540;13.382;2023-04-29T08:31:21;57.69;55.66;61.00;;
73663;Laerm;61956;52.540;13.382;2023-04-29T08:33:51;57.54;55.73;64.53;;
73663;Laerm;61956;52.540;13.382;2023-04-29T08:36:23;58.02;55.74;66.82;;
73663;Laerm;61956;52.540;13.382;2023-04-29T08:38:54;58.23;56.34;61.88;;
73663;Laerm;61956;52.540;13.382;2023-04-29T08:41:23;58.70;56.58;61.28;;
73663;Laerm;61956;52.540;13.382;2023-04-29T08:43:53;59.06;56.76;61.82;;
73663;Laerm;61956;52.540;13.382;2023-04-29T08:46:24;58.57;56.57;61.47;;
73663;Laerm;61956;52.540;13.382;2023-04-29T08:48:55;58.37;56.10;61.06;;
73663;Laerm;61956;52.540;13.382;2023-04-29T08:51:27;58.23;56.41;63.51;;
73663;Laerm;61956;52.540;13.382;2023-04-29T08:53:57;58.11;56.22;60.85;;
73663;Laerm;61956;52.540;13.382;2023-04-29T08:56:29;58.25;56.36;61.09;;
73663;Laerm;61956;52.540;13.382;2023-04-29T08:59:01;58.38;56.56;61.16;;
73663;Laerm;61956;52.540;13.382;2023-04-29T09:01:32;58.37;56.39;61.06;;
73663;Laerm;61956;52.540;13.382;2023-04-29T09:04:30;58.60;56.81;61.72;;
73663;Laerm;61956;52.540;13.382;2023-04-29T09:07:10;58.59;56.48;61.59;;
73663;Laerm;61956;52.540;13.382;2023-04-29T09:09:41;58.39;55.30;62.63;;
73663;Laerm;61956;52.540;13.382;2023-04-29T09:12:10;56.84;54.83;62.05;;
73663;Laerm;61956;52.540;13.382;2023-04-29T09:14:39;58.23;55.11;65.19;;
73663;Laerm;61956;52.540;13.382;2023-04-29T09:17:09;59.75;57.68;62.15;;
73663;Laerm;61956;52.540;13.382;2023-04-29T09:19:38;59.75;57.64;62.49;;
73663;Laerm;61956;52.540;13.382;2023-04-29T09:22:09;59.72;57.57;62.52;;
73663;Laerm;61956;52.540;13.382;2023-04-29T09:24:39;59.88;57.66;62.84;;
73663;Laerm;61956;52.540;13.382;2023-04-29T09:27:09;59.90;57.55;63.39;;
73663;Laerm;61956;52.540;13.382;2023-04-29T09:30:00;59.87;57.47;66.24;;
73663;Laerm;61956;52.540;13.382;2023-04-29T09:32:30;59.91;57.71;62.58;;
73663;Laerm;61956;52.540;13.382;2023-04-29T09:35:23;66.98;57.61;85.15;;
73663;Laerm;61956;52.540;13.382;2023-04-29T09:38:09;65.60;57.62;85.73;;
73663;Laerm;61956;52.540;13.382;2023-04-29T09:40:40;60.15;57.61;70.56;;
73663;Laerm;61956;52.540;13.382;2023-04-29T09:43:14;60.26;57.66;66.38;;
73663;Laerm;61956;52.540;13.382;2023-04-29T09:45:47;60.37;57.58;68.95;;
73663;Laerm;61956;52.540;13.382;2023-04-29T09:48:16;60.20;57.68;65.43;;
73663;Laerm;61956;52.540;13.382;2023-04-29T09:50:59;60.15;57.59;63.15;;
73663;Laerm;61956;52.540;13.382;2023-04-29T09:53:32;60.15;57.72;77.58;;
73663;Laerm;61956;52.540;13.382;2023-04-29T09:56:04;60.05;57.47;63.25;;
73663;Laerm;61956;52.540;13.382;2023-04-29T09:58:34;60.08;57.44;63.50;;
73663;Laerm;61956;52.540;13.382;2023-04-29T10:01:06;60.15;57.54;64.95;;
73663;Laerm;61956;52.540;13.382;2023-04-29T10:03:37;60.11;57.36;64.57;;
73663;Laerm;61956;52.540;13.382;2023-04-29T10:06:07;60.11;57.53;63.48;;
73663;Laerm;61956;52.540;13.382;2023-04-29T10:08:39;60.08;57.50;63.54;;
73663;Laerm;61956;52.540;13.382;2023-04-29T10:11:10;60.32;57.39;68.79;;
73663;Laerm;61956;52.540;13.382;2023-04-29T10:13:42;60.24;57.60;67.93;;
73663;Laerm;61956;52.540;13.382;2023-04-29T10:16:27;61.50;57.61;78.64;;
73663;Laerm;61956;52.540;13.382;2023-04-29T10:19:03;60.69;57.61;73.69;;
73663;Laerm;61956;52.540;13.382;2023-04-29T10:21:35;60.30;57.57;68.08;;
73663;Laerm;61956;52.540;13.382;2023-04-29T10:24:10;60.41;57.48;79.10;;
73663;Laerm;61956;52.540;13.382;2023-04-29T10:26:42;60.09;57.56;69.52;;
73663;Laerm;61956;52.540;13.382;2023-04-29T10:29:13;60.28;57.48;78.97;;
73663;Laerm;61956;52.540;13.382;2023-04-29T10:31:44;60.09;57.56;63.86;;
73663;Laerm;61956;52.540;13.382;2023-04-29T10:34:16;60.14;57.42;63.68;;
73663;Laerm;61956;52.540;13.382;2023-04-29T10:36:48;60.06;57.65;63.78;;
73663;Laerm;61956;52.540;13.382;2023-04-29T10:39:29;60.26;57.58;74.41;;
73663;Laerm;61956;52.540;13.382;2023-04-29T10:42:15;60.33;57.72;69.89;;
73663;Laerm;61956;52.540;13.382;2023-04-29T10:45:20;60.16;57.40;63.73;;
73663;Laerm;61956;52.540;13.382;2023-04-29T10:48:11;60.17;57.42;63.40;;
73663;Laerm;61956;52.540;13.382;2023-04-29T10:51:02;60.34;57.48;65.52;;
73663;Laerm;61956;52.540;13.382;2023-04-29T10:53:32;60.11;57.66;63.30;;
73663;Laerm;61956;52.540;13.382;2023-04-29T10:56:09;60.24;57.74;65.48;;
73663;Laerm;61956;52.540;13.382;2023-04-29T10:58:44;60.18;57.62;63.71;;
73663;Laerm;61956;52.540;13.382;2023-04-29T11:01:15;60.10;57.66;64.14;;
73663;Laerm;61956;52.540;13.382;2023-04-29T11:03:50;60.05;57.63;63.63;;
73663;Laerm;61956;52.540;13.382;2023-04-29T11:06:37;60.24;57.63;66.47;;
73663;Laerm;61956;52.540;13.382;2023-04-29T11:09:11;60.19;57.48;66.94;;
73663;Laerm;61956;52.540;13.382;2023-04-29T11:11:55;60.07;57.60;64.32;;
73663;Laerm;61956;52.540;13.382;2023-04-29T11:14:29;60.06;57.61;63.20;;
73663;Laerm;61956;52.540;13.382;2023-04-29T11:17:01;60.00;57.40;63.49;;
73663;Laerm;61956;52.540;13.382;2023-04-29T11:22:12;61.53;58.56;64.99;;
73663;Laerm;61956;52.540;13.382;2023-04-29T11:24:50;61.68;57.98;70.49;;
73663;Laerm;61956;52.540;13.382;2023-04-29T11:27:25;64.16;58.05;80.85;;
73663;Laerm;61956;52.540;13.382;2023-04-29T11:29:56;61.66;58.34;64.96;;
73663;Laerm;61956;52.540;13.382;2023-04-29T11:32:34;61.71;58.45;64.69;;
73663;Laerm;61956;52.540;13.382;2023-04-29T11:35:09;61.81;58.07;65.28;;
73663;Laerm;61956;52.540;13.382;2023-04-29T11:37:39;61.98;58.19;65.47;;
73663;Laerm;61956;52.540;13.382;2023-04-29T11:40:10;61.95;58.57;66.97;;
73663;Laerm;61956;52.540;13.382;2023-04-29T11:42:47;62.08;58.45;67.56;;
73663;Laerm;61956;52.540;13.382;2023-04-29T11:45:17;64.09;57.92;81.33;;
73663;Laerm;61956;52.540;13.382;2023-04-29T11:47:48;61.89;57.82;64.62;;
73663;Laerm;61956;52.540;13.382;2023-04-29T11:50:17;61.94;58.05;65.04;;
73663;Laerm;61956;52.540;13.382;2023-04-29T11:52:47;62.05;58.32;65.41;;
73663;Laerm;61956;52.540;13.382;2023-04-29T11:55:18;61.82;57.97;64.98;;
73663;Laerm;61956;52.540;13.382;2023-04-29T11:57:51;62.04;58.34;64.97;;
73663;Laerm;61956;52.540;13.382;2023-04-29T12:00:20;61.97;58.53;64.84;;
73663;Laerm;61956;52.540;13.382;2023-04-29T12:02:50;61.75;58.16;65.24;;
73663;Laerm;61956;52.540;13.382;2023-04-29T12:05:19;61.97;58.15;64.77;;
73663;Laerm;61956;52.540;13.382;2023-04-29T12:07:48;62.12;58.76;65.57;;
73663;Laerm;61956;52.540;13.382;2023-04-29T12:10:18;61.88;57.97;65.09;;
73663;Laerm;61956;52.540;13.382;2023-04-29T12:12:50;61.88;58.31;64.68;;
73663;Laerm;61956;52.540;13.382;2023-04-29T12:15:20;61.98;58.31;64.92;;
73663;Laerm;61956;52.540;13.382;2023-04-29T12:17:49;61.97;58.38;65.30;;
73663;Laerm;61956;52.540;13.382;2023-04-29T12:20:20;61.87;58.35;64.97;;
73663;Laerm;61956;52.540;13.382;2023-04-29T12:22:49;62.05;58.63;64.77;;
73663;Laerm;61956;52.540;13.382;2023-04-29T12:25:19;62.10;58.07;65.11;;
73663;Laerm;61956;52.540;13.382;2023-04-29T12:27:58;61.94;58.31;64.69;;
73663;Laerm;61956;52.540;13.382;2023-04-29T12:30:29;61.83;58.17;65.00;;
73663;Laerm;61956;52.540;13.382;2023-04-29T12:33:02;61.73;57.97;64.73;;
73663;Laerm;61956;52.540;13.382;2023-04-29T12:35:31;62.03;58.68;64.88;;
73663;Laerm;61956;52.540;13.382;2023-04-29T12:38:01;62.02;58.66;65.15;;
73663;Laerm;61956;52.540;13.382;2023-04-29T12:40:31;62.04;58.72;64.91;;
73663;Laerm;61956;52.540;13.382;2023-04-29T12:43:10;61.86;58.34;64.79;;
73663;Laerm;61956;52.540;13.382;2023-04-29T12:45:40;61.75;58.21;64.77;;
73663;Laerm;61956;52.540;13.382;2023-04-29T12:48:11;62.07;58.56;64.90;;
73663;Laerm;61956;52.540;13.382;2023-04-29T12:50:41;62.04;58.49;65.41;;
73663;Laerm;61956;52.540;13.382;2023-04-29T12:53:10;61.87;58.43;64.86;;
73663;Laerm;61956;52.540;13.382;2023-04-29T12:58:10;63.32;59.10;67.16;;
73663;Laerm;61956;52.540;13.382;2023-04-29T13:00:40;63.14;58.47;66.37;;
73663;Laerm;61956;52.540;13.382;2023-04-29T13:03:09;63.22;58.90;66.22;;
73663;Laerm;61956;52.540;13.382;2023-04-29T13:05:38;63.18;57.89;66.33;;
73663;Laerm;61956;52.540;13.382;2023-04-29T13:08:07;63.18;58.88;66.28;;
73663;Laerm;61956;52.540;13.382;2023-04-29T13:10:37;63.09;58.70;65.99;;
73663;Laerm;61956;52.540;13.382;2023-04-29T13:13:11;63.23;58.52;66.39;;
73663;Laerm;61956;52.540;13.382;2023-04-29T13:15:41;63.28;58.92;66.39;;
73663;Laerm;61956;52.540;13.382;2023-04-29T13:18:10;63.05;58.76;65.95;;
73663;Laerm;61956;52.540;13.382;2023-04-29T13:20:40;63.21;59.31;66.16;;
73663;Laerm;61956;52.540;13.382;2023-04-29T13:23:09;63.13;58.82;66.39;;
73663;Laerm;61956;52.540;13.382;2023-04-29T13:25:38;63.27;58.88;66.20;;
73663;Laerm;61956;52.540;13.382;2023-04-29T13:28:10;63.10;58.13;66.24;;
73663;Laerm;61956;52.540;13.382;2023-04-29T13:30:40;63.27;58.26;66.49;;
73663;Laerm;61956;52.540;13.382;2023-04-29T13:33:09;63.20;58.74;66.42;;
73663;Laerm;61956;52.540;13.382;2023-04-29T13:35:38;63.18;58.83;66.40;;
73663;Laerm;61956;52.540;13.382;2023-04-29T13:38:08;63.18;58.88;66.43;;
73663;Laerm;61956;52.540;13.382;2023-04-29T13:40:37;63.14;58.50;66.41;;
73663;Laerm;61956;52.540;13.382;2023-04-29T13:43:06;63.19;58.35;66.38;;
73663;Laerm;61956;52.540;13.382;2023-04-29T13:45:38;63.21;58.80;66.52;;
73663;Laerm;61956;52.540;13.382;2023-04-29T13:48:07;63.31;58.64;66.60;;
73663;Laerm;61956;52.540;13.382;2023-04-29T13:50:36;63.19;58.56;67.12;;
73663;Laerm;61956;52.540;13.382;2023-04-29T13:53:06;63.23;58.85;66.11;;
73663;Laerm;61956;52.540;13.382;2023-04-29T13:55:35;63.10;58.49;66.52;;
73663;Laerm;61956;52.540;13.382;2023-04-29T13:58:04;63.23;58.98;66.71;;
73663;Laerm;61956;52.540;13.382;2023-04-29T14:00:33;63.35;58.90;66.59;;
73663;Laerm;61956;52.540;13.382;2023-04-29T14:03:06;63.17;58.60;66.42;;
73663;Laerm;61956;52.540;13.382;2023-04-29T14:05:35;63.30;58.76;66.34;;
73663;Laerm;61956;52.540;13.382;2023-04-29T14:08:05;63.32;58.34;66.33;;